ePrivacy and GPDR Cookie Consent by Cookie Consent
EmailTwitter


Observations de surface / Québec / CYSC

Régions: Québec | Canada | États-Unis | Europe | France | UK | Ailleurs
Station
Affichage
Infos & localisation pour CYSC | Aide pour décoder les METARs

Observations prises le 2021-04-18 à 09H00 UTC à SHERBROOKE, QB (CYSC)

Etat du ciel: couvert.

Température: 3.0 Celsius

Point de rosée: 0.0 Celsius

Humidité relative: 81%

Vents: Nord à 4 km/h ou 2 noeuds.

Pression au niveau moyen de la mer: 100.85 kilopascals.

Calage altimétrique: 100.74 kilopascals ou 29.75 pouces de mercure.

Visibilité horizontale: 9.00 milles terrestres ou 14.40 kilomètres.

Hauteur du plafond: 640 mètres ( 2100 pieds ).

Observation METAR:

CYSC 180900Z AUTO 35002KT 9SM OVC021 03/00 A2975 RMK SLP085=